Time,TemperatureF,DewpointF,PressureIn,WindDirection,WindDirectionDegrees,WindSpeedMPH,WindSpeedGustMPH,Humidity,HourlyPrecipIn,Conditions,Clouds,dailyrainin,SoftwareType,DateUTC
2013-01-10 00:02:00,22.1,5.4,30.28,WNW,301,4.0,10.0,48,0.00,,,0.00,meteohub,2013-01-10 07:02:00,
2013-01-10 00:07:00,21.7,5.5,30.27,WNW,293,2.0,10.0,49,0.00,,,0.00,meteohub,2013-01-10 07:07:00,
2013-01-10 00:12:00,22.3,6.1,30.27,WNW,295,2.0,10.0,49,0.00,,,0.00,meteohub,2013-01-10 07:12:00,
2013-01-10 00:17:00,22.8,5.5,30.27,NW,312,3.0,6.0,47,0.00,,,0.00,meteohub,2013-01-10 07:17:00,
2013-01-10 00:22:00,22.6,5.0,30.26,NNW,340,6.0,8.0,46,0.00,,,0.00,meteohub,2013-01-10 07:22:00,
2013-01-10 00:27:00,21.7,5.0,30.25,NW,316,9.0,9.0,48,0.00,,,0.00,meteohub,2013-01-10 07:27:00,
2013-01-10 00:32:00,20.8,5.2,30.25,NW,326,8.0,11.0,50,0.00,,,0.00,meteohub,2013-01-10 07:32:00,
2013-01-10 00:37:00,20.7,5.0,30.25,NW,325,9.0,11.0,50,0.00,,,0.00,meteohub,2013-01-10 07:37:00,
2013-01-10 00:42:00,20.3,5.0,30.25,NW,321,6.0,11.0,51,0.00,,,0.00,meteohub,2013-01-10 07:42:00,
2013-01-10 00:47:00,20.1,4.8,30.24,NNW,332,10.0,12.0,51,0.00,,,0.00,meteohub,2013-01-10 07:47:00,
2013-01-10 00:52:00,20.1,4.8,30.24,NW,322,6.0,12.0,51,0.00,,,0.00,meteohub,2013-01-10 07:52:00,
2013-01-10 00:57:00,20.1,4.8,30.24,NNW,336,4.0,11.0,51,0.00,,,0.00,meteohub,2013-01-10 07:57:00,
2013-01-10 01:02:00,20.7,5.4,30.24,NNW,328,5.0,11.0,51,0.00,,,0.00,meteohub,2013-01-10 08:02:00,
2013-01-10 01:07:00,21.2,5.5,30.24,NW,323,6.0,10.0,50,0.00,,,0.00,meteohub,2013-01-10 08:07:00,
2013-01-10 01:12:00,21.4,5.2,30.23,NW,322,5.0,10.0,49,0.00,,,0.00,meteohub,2013-01-10 08:12:00,
2013-01-10 01:17:00,21.2,5.0,30.24,NW,316,5.0,10.0,49,0.00,,,0.00,meteohub,2013-01-10 08:17:00,
2013-01-10 01:22:00,21.7,5.0,30.24,NNW,328,7.0,8.0,48,0.00,,,0.00,meteohub,2013-01-10 08:22:00,
2013-01-10 01:27:00,21.6,4.8,30.23,NNW,328,7.0,9.0,48,0.00,,,0.00,meteohub,2013-01-10 08:27:00,
2013-01-10 01:32:00,20.5,4.3,30.23,NW,322,5.0,11.0,49,0.00,,,0.00,meteohub,2013-01-10 08:32:00,
2013-01-10 01:37:00,19.8,4.1,30.24,NW,310,5.0,11.0,50,0.00,,,0.00,meteohub,2013-01-10 08:37:00,
2013-01-10 01:42:00,19.6,4.5,30.24,NNW,332,6.0,9.0,51,0.00,,,0.00,meteohub,2013-01-10 08:42:00,
2013-01-10 01:47:00,19.4,4.3,30.24,NNW,328,7.0,8.0,51,0.00,,,0.00,meteohub,2013-01-10 08:47:00,
2013-01-10 01:52:00,19.6,4.5,30.23,NNW,333,8.0,8.0,51,0.00,,,0.00,meteohub,2013-01-10 08:52:00,
2013-01-10 01:57:00,19.6,4.5,30.23,NNW,330,7.0,9.0,51,0.00,,,0.00,meteohub,2013-01-10 08:57:00,
2013-01-10 02:02:00,19.0,4.3,30.23,NNW,333,8.0,9.0,52,0.00,,,0.00,meteohub,2013-01-10 09:02:00,
2013-01-10 02:07:00,18.7,4.5,30.23,NW,322,6.0,10.0,53,0.00,,,0.00,meteohub,2013-01-10 09:07:00,
2013-01-10 02:12:00,18.5,4.3,30.22,NW,321,4.0,10.0,53,0.00,,,0.00,meteohub,2013-01-10 09:12:00,
2013-01-10 02:17:00,18.3,4.1,30.22,NNW,330,5.0,9.0,53,0.00,,,0.00,meteohub,2013-01-10 09:17:00,
2013-01-10 02:22:00,18.5,4.6,30.22,NW,321,5.0,8.0,54,0.00,,,0.00,meteohub,2013-01-10 09:22:00,
2013-01-10 02:27:00,18.9,4.6,30.22,NNW,328,7.0,9.0,53,0.00,,,0.00,meteohub,2013-01-10 09:27:00,
2013-01-10 02:32:00,19.0,4.3,30.22,NW,323,7.0,10.0,52,0.00,,,0.00,meteohub,2013-01-10 09:32:00,
2013-01-10 02:37:00,19.2,4.5,30.22,NW,321,5.0,10.0,52,0.00,,,0.00,meteohub,2013-01-10 09:37:00,
2013-01-10 02:42:00,19.8,4.6,30.21,NNW,329,5.0,10.0,51,0.00,,,0.00,meteohub,2013-01-10 09:42:00,
2013-01-10 02:47:00,19.9,4.6,30.22,NNW,328,4.0,10.0,51,0.00,,,0.00,meteohub,2013-01-10 09:47:00,
2013-01-10 02:52:00,20.5,5.2,30.21,NW,326,7.0,10.0,51,0.00,,,0.00,meteohub,2013-01-10 09:52:00,
2013-01-10 02:57:00,20.8,5.2,30.21,NNW,330,4.0,10.0,50,0.00,,,0.00,meteohub,2013-01-10 09:57:00,
2013-01-10 03:02:00,20.3,4.6,30.20,NNW,330,4.0,10.0,50,0.00,,,0.00,meteohub,2013-01-10 10:02:00,
2013-01-10 03:07:00,19.6,4.5,30.21,NNW,328,5.0,9.0,51,0.00,,,0.00,meteohub,2013-01-10 10:07:00,
2013-01-10 03:12:00,19.0,3.9,30.20,NNW,328,7.0,7.0,51,0.00,,,0.00,meteohub,2013-01-10 10:12:00,
2013-01-10 03:17:00,19.0,4.3,30.20,NNW,328,7.0,9.0,52,0.00,,,0.00,meteohub,2013-01-10 10:17:00,
2013-01-10 03:22:00,19.0,4.3,30.19,NW,326,5.0,9.0,52,0.00,,,0.00,meteohub,2013-01-10 10:22:00,
2013-01-10 03:27:00,19.0,4.3,30.19,NNW,328,5.0,9.0,52,0.00,,,0.00,meteohub,2013-01-10 10:27:00,
2013-01-10 03:32:00,19.0,4.3,30.19,NNW,330,3.0,9.0,52,0.00,,,0.00,meteohub,2013-01-10 10:32:00,
2013-01-10 03:37:00,19.0,4.3,30.18,NW,315,3.0,6.0,52,0.00,,,0.00,meteohub,2013-01-10 10:37:00,
2013-01-10 03:42:00,18.7,3.9,30.18,NNW,328,3.0,6.0,52,0.00,,,0.00,meteohub,2013-01-10 10:42:00,
2013-01-10 03:47:00,18.0,3.7,30.18,NNW,330,3.0,5.0,53,0.00,,,0.00,meteohub,2013-01-10 10:47:00,
2013-01-10 03:52:00,16.3,2.1,30.18,NNW,338,4.0,5.0,53,0.00,,,0.00,meteohub,2013-01-10 10:52:00,
2013-01-10 03:57:00,15.1,2.7,30.18,NNW,340,7.0,7.0,57,0.00,,,0.00,meteohub,2013-01-10 10:57:00,
2013-01-10 04:02:00,14.5,2.5,30.18,NW,315,7.0,9.0,58,0.00,,,0.00,meteohub,2013-01-10 11:02:00,
2013-01-10 04:07:00,14.7,3.0,30.17,NNW,328,6.0,9.0,59,0.00,,,0.00,meteohub,2013-01-10 11:07:00,
2013-01-10 04:12:00,14.7,3.0,30.17,NW,322,10.0,10.0,59,0.00,,,0.00,meteohub,2013-01-10 11:12:00,
2013-01-10 04:17:00,14.7,3.0,30.17,NNW,328,9.0,12.0,59,0.00,,,0.00,meteohub,2013-01-10 11:17:00,
2013-01-10 04:22:00,14.7,3.0,30.16,NNW,333,3.0,12.0,59,0.00,,,0.00,meteohub,2013-01-10 11:22:00,
2013-01-10 04:27:00,14.5,2.8,30.16,NNW,328,5.0,12.0,59,0.00,,,0.00,meteohub,2013-01-10 11:27:00,
2013-01-10 04:32:00,15.3,3.9,30.15,NNW,329,6.0,9.0,60,0.00,,,0.00,meteohub,2013-01-10 11:32:00,
2013-01-10 04:37:00,16.9,4.6,30.15,NNW,335,8.0,8.0,58,0.00,,,0.00,meteohub,2013-01-10 11:37:00,
2013-01-10 04:42:00,18.1,4.6,30.15,NNW,328,9.0,11.0,55,0.00,,,0.00,meteohub,2013-01-10 11:42:00,
2013-01-10 04:47:00,18.0,3.7,30.14,NW,326,10.0,13.0,53,0.00,,,0.00,meteohub,2013-01-10 11:47:00,
2013-01-10 04:52:00,17.8,3.6,30.14,NW,322,10.0,13.0,53,0.00,,,0.00,meteohub,2013-01-10 11:52:00,
2013-01-10 04:57:00,16.9,2.7,30.14,NW,319,10.0,13.0,53,0.00,,,0.00,meteohub,2013-01-10 11:57:00,
2013-01-10 05:02:00,16.0,2.7,30.14,NW,326,5.0,12.0,55,0.00,,,0.00,meteohub,2013-01-10 12:02:00,
2013-01-10 05:07:00,15.3,2.3,30.14,NW,321,3.0,12.0,56,0.00,,,0.00,meteohub,2013-01-10 12:07:00,
2013-01-10 05:12:00,16.2,3.6,30.13,NW,318,4.0,11.0,57,0.00,,,0.00,meteohub,2013-01-10 12:12:00,
2013-01-10 05:17:00,17.8,4.3,30.13,NW,325,8.0,9.0,55,0.00,,,0.00,meteohub,2013-01-10 12:17:00,
2013-01-10 05:22:00,18.1,3.9,30.13,NNW,328,4.0,10.0,53,0.00,,,0.00,meteohub,2013-01-10 12:22:00,
2013-01-10 05:27:00,18.0,3.7,30.13,NNW,333,4.0,10.0,53,0.00,,,0.00,meteohub,2013-01-10 12:27:00,
2013-01-10 05:32:00,18.0,3.7,30.12,NNW,329,4.0,10.0,53,0.00,,,0.00,meteohub,2013-01-10 12:32:00,
2013-01-10 05:37:00,17.8,3.2,30.13,NNW,330,7.0,7.0,52,0.00,,,0.00,meteohub,2013-01-10 12:37:00,
2013-01-10 05:43:00,17.4,3.2,30.12,NNW,328,5.0,7.0,53,0.00,,,0.00,meteohub,2013-01-10 12:43:00,
2013-01-10 05:48:00,17.4,3.2,30.12,NNW,330,6.0,7.0,53,0.00,,,0.00,meteohub,2013-01-10 12:48:00,
2013-01-10 05:54:00,17.1,2.8,30.12,NNW,340,7.0,8.0,53,0.00,,,0.00,meteohub,2013-01-10 12:54:00,
2013-01-10 05:59:00,17.1,2.8,30.12,NW,326,9.0,9.0,53,0.00,,,0.00,meteohub,2013-01-10 12:59:00,
2013-01-10 06:05:00,16.9,2.3,30.11,NW,325,5.0,9.0,52,0.00,,,0.00,meteohub,2013-01-10 13:05:00,
2013-01-10 06:10:00,17.1,2.5,30.11,NW,309,5.0,9.0,52,0.00,,,0.00,meteohub,2013-01-10 13:10:00,
2013-01-10 06:16:00,17.2,2.7,30.11,NW,321,4.0,8.0,52,0.00,,,0.00,meteohub,2013-01-10 13:16:00,
2013-01-10 06:21:00,17.6,3.0,30.11,NW,326,8.0,8.0,52,0.00,,,0.00,meteohub,2013-01-10 13:21:00,
2013-01-10 06:27:00,17.6,2.5,30.11,NNW,328,8.0,9.0,51,0.00,,,0.00,meteohub,2013-01-10 13:27:00,
2013-01-10 06:32:00,17.4,2.8,30.10,NW,319,9.0,11.0,52,0.00,,,0.00,meteohub,2013-01-10 13:32:00,
2013-01-10 06:37:00,16.3,1.8,30.10,NNW,328,13.0,14.0,52,0.00,,,0.00,meteohub,2013-01-10 13:37:00,
2013-01-10 06:42:00,15.4,1.8,30.10,NW,323,10.0,15.0,54,0.00,,,0.00,meteohub,2013-01-10 13:42:00,
2013-01-10 06:47:00,14.9,2.1,30.10,NW,318,9.0,15.0,56,0.00,,,0.00,meteohub,2013-01-10 13:47:00,
2013-01-10 06:52:00,14.4,1.6,30.10,NNW,335,7.0,14.0,56,0.00,,,0.00,meteohub,2013-01-10 13:52:00,
2013-01-10 06:57:00,13.8,1.8,30.10,NW,322,7.0,14.0,58,0.00,,,0.00,meteohub,2013-01-10 13:57:00,
2013-01-10 07:02:00,14.2,2.5,30.09,NW,326,9.0,14.0,59,0.00,,,0.00,meteohub,2013-01-10 14:02:00,
2013-01-10 07:07:00,14.4,2.3,30.10,NW,322,10.0,12.0,58,0.00,,,0.00,meteohub,2013-01-10 14:07:00,
2013-01-10 07:12:00,14.2,2.1,30.10,NNW,339,11.0,12.0,58,0.00,,,0.00,meteohub,2013-01-10 14:12:00,
2013-01-10 07:17:00,14.0,1.9,30.10,NW,312,8.0,12.0,58,0.00,,,0.00,meteohub,2013-01-10 14:17:00,
2013-01-10 07:22:00,14.0,1.9,30.09,NW,322,8.0,13.0,58,0.00,,,0.00,meteohub,2013-01-10 14:22:00,
2013-01-10 07:27:00,14.2,2.1,30.10,NW,315,8.0,13.0,58,0.00,,,0.00,meteohub,2013-01-10 14:27:00,
2013-01-10 07:32:00,14.7,2.7,30.10,NNW,330,6.0,11.0,58,0.00,,,0.00,meteohub,2013-01-10 14:32:00,
2013-01-10 07:37:00,14.9,2.5,30.10,NW,322,8.0,10.0,57,0.00,,,0.00,meteohub,2013-01-10 14:37:00,
2013-01-10 07:42:00,15.8,2.8,30.10,NNW,332,7.0,9.0,56,0.00,,,0.00,meteohub,2013-01-10 14:42:00,
2013-01-10 07:47:00,16.3,3.0,30.10,NW,326,7.0,9.0,55,0.00,,,0.00,meteohub,2013-01-10 14:47:00,
2013-01-10 07:52:00,16.9,3.2,30.09,NNW,328,7.0,10.0,54,0.00,,,0.00,meteohub,2013-01-10 14:52:00,
2013-01-10 07:57:00,17.1,2.8,30.09,NNW,329,5.0,10.0,53,0.00,,,0.00,meteohub,2013-01-10 14:57:00,
2013-01-10 08:02:00,17.8,3.2,30.09,NNW,328,7.0,10.0,52,0.00,,,0.00,meteohub,2013-01-10 15:02:00,
2013-01-10 08:07:00,18.3,2.8,30.09,NNW,329,7.0,10.0,50,0.00,,,0.00,meteohub,2013-01-10 15:07:00,
2013-01-10 08:12:00,18.0,2.8,30.09,NNW,335,4.0,10.0,51,0.00,,,0.00,meteohub,2013-01-10 15:12:00,
2013-01-10 08:17:00,17.4,2.3,30.09,NNW,328,5.0,9.0,51,0.00,,,0.00,meteohub,2013-01-10 15:17:00,
2013-01-10 08:22:00,17.1,2.5,30.09,NW,323,4.0,8.0,52,0.00,,,0.00,meteohub,2013-01-10 15:22:00,
2013-01-10 08:27:00,17.4,2.8,30.08,NNW,328,5.0,7.0,52,0.00,,,0.00,meteohub,2013-01-10 15:27:00,
2013-01-10 08:32:00,18.5,3.4,30.08,NW,326,5.0,6.0,51,0.00,,,0.00,meteohub,2013-01-10 15:32:00,
2013-01-10 08:37:00,19.6,3.6,30.08,NW,315,7.0,8.0,49,0.00,,,0.00,meteohub,2013-01-10 15:37:00,
2013-01-10 08:43:00,19.2,3.2,30.08,NNW,335,3.0,8.0,49,0.00,,,0.00,meteohub,2013-01-10 15:43:00,
2013-01-10 08:48:00,18.7,3.2,30.08,NNW,329,5.0,9.0,50,0.00,,,0.00,meteohub,2013-01-10 15:48:00,
2013-01-10 08:54:00,18.0,2.8,30.08,NW,319,3.0,9.0,51,0.00,,,0.00,meteohub,2013-01-10 15:54:00,
2013-01-10 08:59:00,17.8,3.2,30.08,NW,310,1.0,8.0,52,0.00,,,0.00,meteohub,2013-01-10 15:59:00,
2013-01-10 09:05:00,18.0,3.7,30.08,NNW,332,3.0,6.0,53,0.00,,,0.00,meteohub,2013-01-10 16:05:00,
2013-01-10 09:10:00,18.1,3.6,30.07,NNW,328,4.0,4.0,52,0.00,,,0.00,meteohub,2013-01-10 16:10:00,
2013-01-10 09:16:00,18.7,3.9,30.07,NW,322,2.0,4.0,52,0.00,,,0.00,meteohub,2013-01-10 16:16:00,
2013-01-10 09:21:00,19.8,4.1,30.07,NNW,328,3.0,4.0,50,0.00,,,0.00,meteohub,2013-01-10 16:21:00,
2013-01-10 09:27:00,20.1,4.5,30.07,NNW,335,4.0,4.0,50,0.00,,,0.00,meteohub,2013-01-10 16:27:00,
2013-01-10 09:32:00,20.5,4.3,30.06,NW,326,4.0,6.0,49,0.00,,,0.00,meteohub,2013-01-10 16:32:00,
2013-01-10 09:38:00,21.2,4.1,30.06,WNW,300,2.0,7.0,47,0.00,,,0.00,meteohub,2013-01-10 16:38:00,
2013-01-10 09:43:00,21.7,4.1,30.06,NNW,338,3.0,7.0,46,0.00,,,0.00,meteohub,2013-01-10 16:43:00,
2013-01-10 09:49:00,21.7,3.7,30.06,NW,319,6.0,7.0,45,0.00,,,0.00,meteohub,2013-01-10 16:49:00,
2013-01-10 09:54:00,21.4,3.7,30.06,NNW,340,3.0,8.0,46,0.00,,,0.00,meteohub,2013-01-10 16:54:00,
2013-01-10 10:00:00,21.0,4.5,30.06,NW,312,1.0,10.0,48,0.00,,,0.00,meteohub,2013-01-10 17:00:00,
2013-01-10 10:05:00,20.8,4.3,30.06,NNW,335,1.0,7.0,48,0.00,,,0.00,meteohub,2013-01-10 17:05:00,
2013-01-10 10:11:00,20.8,4.3,30.06,North,11,3.0,6.0,48,0.00,,,0.00,meteohub,2013-01-10 17:11:00,
2013-01-10 10:16:00,20.7,4.5,30.05,NNW,329,5.0,6.0,49,0.00,,,0.00,meteohub,2013-01-10 17:16:00,
2013-01-10 10:22:00,20.7,5.0,30.05,NW,322,2.0,7.0,50,0.00,,,0.00,meteohub,2013-01-10 17:22:00,
2013-01-10 10:27:00,21.0,4.8,30.05,NW,316,7.0,7.0,49,0.00,,,0.00,meteohub,2013-01-10 17:27:00,
2013-01-10 10:32:00,21.0,4.8,30.04,NW,323,1.0,9.0,49,0.00,,,0.00,meteohub,2013-01-10 17:32:00,
2013-01-10 10:37:00,21.7,5.5,30.04,NW,315,5.0,9.0,49,0.00,,,0.00,meteohub,2013-01-10 17:37:00,
2013-01-10 10:42:00,21.9,4.8,30.04,NW,321,5.0,9.0,47,0.00,,,0.00,meteohub,2013-01-10 17:42:00,
2013-01-10 10:47:00,22.5,4.8,30.04,NNW,336,4.0,6.0,46,0.00,,,0.00,meteohub,2013-01-10 17:47:00,
2013-01-10 10:52:00,22.6,5.0,30.03,NNW,328,4.0,6.0,46,0.00,,,0.00,meteohub,2013-01-10 17:52:00,
2013-01-10 10:57:00,23.0,5.4,30.03,NW,322,4.0,6.0,46,0.00,,,0.00,meteohub,2013-01-10 17:57:00,
2013-01-10 11:02:00,23.5,5.7,30.02,West,277,2.0,7.0,46,0.00,,,0.00,meteohub,2013-01-10 18:02:00,
2013-01-10 11:07:00,24.3,5.5,30.02,WNW,297,3.0,7.0,44,0.00,,,0.00,meteohub,2013-01-10 18:07:00,
2013-01-10 11:12:00,24.6,5.4,30.01,NNW,332,3.0,7.0,43,0.00,,,0.00,meteohub,2013-01-10 18:12:00,
2013-01-10 11:17:00,25.3,5.9,30.01,NW,324,3.0,5.0,43,0.00,,,0.00,meteohub,2013-01-10 18:17:00,
2013-01-10 11:22:00,25.9,5.4,30.00,NNW,327,5.0,5.0,41,0.00,,,0.00,meteohub,2013-01-10 18:22:00,
2013-01-10 11:27:00,25.9,5.4,30.00,NNE,23,1.0,7.0,41,0.00,,,0.00,meteohub,2013-01-10 18:27:00,
2013-01-10 11:32:00,25.7,6.8,29.99,NNW,332,2.0,7.0,44,0.00,,,0.00,meteohub,2013-01-10 18:32:00,
2013-01-10 11:37:00,25.5,6.6,29.99,NW,306,1.0,7.0,44,0.00,,,0.00,meteohub,2013-01-10 18:37:00,
2013-01-10 11:42:00,25.7,6.8,29.99,North,357,3.0,6.0,44,0.00,,,0.00,meteohub,2013-01-10 18:42:00,
2013-01-10 11:47:00,25.9,7.0,29.98,NNW,335,1.0,6.0,44,0.00,,,0.00,meteohub,2013-01-10 18:47:00,
2013-01-10 11:52:00,26.2,6.3,29.98,NW,317,3.0,5.0,42,0.00,,,0.00,meteohub,2013-01-10 18:52:00,
2013-01-10 11:57:00,26.2,6.8,29.97,NW,309,2.0,7.0,43,0.00,,,0.00,meteohub,2013-01-10 18:57:00,
2013-01-10 12:02:00,26.6,6.1,29.96,NW,323,3.0,7.0,41,0.00,,,0.00,meteohub,2013-01-10 19:02:00,
2013-01-10 12:07:00,27.3,6.3,29.96,NW,312,1.0,7.0,40,0.00,,,0.00,meteohub,2013-01-10 19:07:00,
2013-01-10 12:12:00,28.0,7.3,29.96,WNW,297,1.0,6.0,41,0.00,,,0.00,meteohub,2013-01-10 19:12:00,
2013-01-10 12:17:00,28.2,7.5,29.96,NNE,21,4.0,6.0,41,0.00,,,0.00,meteohub,2013-01-10 19:17:00,
2013-01-10 12:22:00,28.0,7.3,29.95,NNW,330,5.0,5.0,41,0.00,,,0.00,meteohub,2013-01-10 19:22:00,
2013-01-10 12:27:00,28.2,7.0,29.95,North,4,2.0,8.0,40,0.00,,,0.00,meteohub,2013-01-10 19:27:00,
2013-01-10 12:32:00,28.9,7.2,29.94,NW,315,4.0,8.0,39,0.00,,,0.00,meteohub,2013-01-10 19:32:00,
2013-01-10 12:37:00,29.1,6.1,29.94,NNW,337,3.0,8.0,37,0.00,,,0.00,meteohub,2013-01-10 19:37:00,
2013-01-10 12:42:00,29.3,6.3,29.94,NNW,335,3.0,7.0,37,0.00,,,0.00,meteohub,2013-01-10 19:42:00,
2013-01-10 12:47:00,29.8,7.3,29.94,NNE,25,2.0,7.0,38,0.00,,,0.00,meteohub,2013-01-10 19:47:00,
2013-01-10 12:52:00,29.8,6.8,29.94,NW,316,1.0,6.0,37,0.00,,,0.00,meteohub,2013-01-10 19:52:00,
2013-01-10 12:57:00,30.6,7.3,29.93,NE,34,1.0,5.0,37,0.00,,,0.00,meteohub,2013-01-10 19:57:00,
2013-01-10 13:02:00,31.1,7.9,29.93,NW,318,3.0,5.0,37,0.00,,,0.00,meteohub,2013-01-10 20:02:00,
2013-01-10 13:08:00,31.3,8.1,29.93,West,278,1.0,3.0,37,0.00,,,0.00,meteohub,2013-01-10 20:08:00,
2013-01-10 13:13:00,31.6,7.7,29.93,NW,323,0.0,3.0,36,0.00,,,0.00,meteohub,2013-01-10 20:13:00,
2013-01-10 13:19:00,32.7,8.1,29.92,SE,127,1.0,3.0,35,0.00,,,0.00,meteohub,2013-01-10 20:19:00,
2013-01-10 13:24:00,33.8,7.0,29.91,SSE,155,4.0,4.0,32,0.00,,,0.00,meteohub,2013-01-10 20:24:00,
2013-01-10 13:30:00,34.2,6.6,29.91,SE,146,5.0,6.0,31,0.00,,,0.00,meteohub,2013-01-10 20:30:00,
2013-01-10 13:36:00,34.3,6.1,29.90,SSE,166,1.0,8.0,30,0.00,,,0.00,meteohub,2013-01-10 20:36:00,
2013-01-10 13:41:00,34.7,6.4,29.89,SE,131,5.0,8.0,30,0.00,,,0.00,meteohub,2013-01-10 20:41:00,
2013-01-10 13:47:00,35.1,6.8,29.89,SSE,150,5.0,8.0,30,0.00,,,0.00,meteohub,2013-01-10 20:47:00,
2013-01-10 13:52:00,35.2,6.1,29.89,SSE,148,4.0,8.0,29,0.00,,,0.00,meteohub,2013-01-10 20:52:00,
2013-01-10 13:57:00,35.4,7.0,29.88,SSE,160,5.0,8.0,30,0.00,,,0.00,meteohub,2013-01-10 20:57:00,
2013-01-10 14:02:00,35.2,6.1,29.89,SSE,149,6.0,9.0,29,0.00,,,0.00,meteohub,2013-01-10 21:02:00,
2013-01-10 14:07:00,35.2,7.0,29.88,SE,136,7.0,10.0,30,0.00,,,0.00,meteohub,2013-01-10 21:07:00,
2013-01-10 14:12:00,35.4,7.0,29.88,South,179,5.0,10.0,30,0.00,,,0.00,meteohub,2013-01-10 21:12:00,
2013-01-10 14:17:00,36.0,4.5,29.86,North,359,9.0,15.0,26,0.00,,,0.00,meteohub,2013-01-10 21:17:00,
2013-01-10 14:22:00,36.0,4.5,29.86,SSW,193,5.0,18.0,26,0.00,,,0.00,meteohub,2013-01-10 21:22:00,
2013-01-10 14:27:00,36.1,4.5,29.86,SE,138,3.0,19.0,26,0.00,,,0.00,meteohub,2013-01-10 21:27:00,
2013-01-10 14:33:00,36.5,4.8,29.86,SE,142,6.0,20.0,26,0.00,,,0.00,meteohub,2013-01-10 21:33:00,
2013-01-10 14:39:00,36.7,5.0,29.86,East,81,9.0,20.0,26,0.00,,,0.00,meteohub,2013-01-10 21:39:00,
2013-01-10 14:44:00,36.9,5.2,29.86,WSW,249,4.0,17.0,26,0.00,,,0.00,meteohub,2013-01-10 21:44:00,
2013-01-10 14:50:00,36.7,5.0,29.86,SE,124,4.0,15.0,26,0.00,,,0.00,meteohub,2013-01-10 21:50:00,
2013-01-10 14:55:00,36.1,4.5,29.86,SSW,197,6.0,18.0,26,0.00,,,0.00,meteohub,2013-01-10 21:55:00,
2013-01-10 15:01:00,35.8,4.3,29.86,SSW,197,7.0,18.0,26,0.00,,,0.00,meteohub,2013-01-10 22:01:00,
2013-01-10 15:06:00,35.1,4.5,29.85,SSE,152,11.0,18.0,27,0.00,,,0.00,meteohub,2013-01-10 22:06:00,
2013-01-10 15:12:00,34.7,4.1,29.84,SSW,208,3.0,18.0,27,0.00,,,0.00,meteohub,2013-01-10 22:12:00,
2013-01-10 15:17:00,34.5,4.8,29.84,SW,222,9.0,17.0,28,0.00,,,0.00,meteohub,2013-01-10 22:17:00,
2013-01-10 15:22:00,34.3,4.6,29.84,SSE,167,4.0,17.0,28,0.00,,,0.00,meteohub,2013-01-10 22:22:00,
2013-01-10 15:27:00,34.2,5.2,29.84,SE,139,8.0,17.0,29,0.00,,,0.00,meteohub,2013-01-10 22:27:00,
2013-01-10 15:32:00,34.3,5.4,29.84,SSE,167,5.0,16.0,29,0.00,,,0.00,meteohub,2013-01-10 22:32:00,
2013-01-10 15:37:00,34.2,5.2,29.84,SSE,148,9.0,14.0,29,0.00,,,0.00,meteohub,2013-01-10 22:37:00,
2013-01-10 15:42:00,33.8,4.8,29.83,SSE,150,5.0,13.0,29,0.00,,,0.00,meteohub,2013-01-10 22:42:00,
2013-01-10 15:47:00,33.6,4.8,29.83,SE,143,5.0,13.0,29,0.00,,,0.00,meteohub,2013-01-10 22:47:00,
2013-01-10 15:52:00,33.6,4.8,29.83,South,172,9.0,13.0,29,0.00,,,0.00,meteohub,2013-01-10 22:52:00,
2013-01-10 15:57:00,33.8,4.8,29.83,SSW,197,8.0,11.0,29,0.00,,,0.00,meteohub,2013-01-10 22:57:00,
2013-01-10 16:02:00,33.4,5.4,29.82,SE,131,4.0,14.0,30,0.00,,,0.00,meteohub,2013-01-10 23:02:00,
2013-01-10 16:07:00,32.9,5.5,29.82,SSW,194,10.0,14.0,31,0.00,,,0.00,meteohub,2013-01-10 23:07:00,
2013-01-10 16:12:00,32.2,5.5,29.83,SSE,165,6.0,14.0,32,0.00,,,0.00,meteohub,2013-01-10 23:12:00,
2013-01-10 16:17:00,31.6,5.9,29.83,SE,142,9.0,13.0,33,0.00,,,0.00,meteohub,2013-01-10 23:17:00,
2013-01-10 16:22:00,30.9,5.9,29.82,SE,126,10.0,12.0,34,0.00,,,0.00,meteohub,2013-01-10 23:22:00,
2013-01-10 16:27:00,30.2,5.9,29.82,SSW,208,9.0,12.0,35,0.00,,,0.00,meteohub,2013-01-10 23:27:00,
2013-01-10 16:32:00,29.7,5.9,29.83,SSE,156,8.0,13.0,36,0.00,,,0.00,meteohub,2013-01-10 23:32:00,
2013-01-10 16:37:00,29.1,6.1,29.83,SE,129,9.0,14.0,37,0.00,,,0.00,meteohub,2013-01-10 23:37:00,
2013-01-10 16:42:00,28.6,6.3,29.83,South,169,5.0,14.0,38,0.00,,,0.00,meteohub,2013-01-10 23:42:00,
2013-01-10 16:47:00,28.2,5.9,29.83,South,176,8.0,11.0,38,0.00,,,0.00,meteohub,2013-01-10 23:47:00,
2013-01-10 16:52:00,28.2,5.9,29.83,ESE,121,6.0,13.0,38,0.00,,,0.00,meteohub,2013-01-10 23:52:00,
2013-01-10 16:57:00,28.0,6.3,29.82,SW,228,5.0,13.0,39,0.00,,,0.00,meteohub,2013-01-10 23:57:00,
2013-01-10 17:02:00,27.5,5.7,29.82,SSE,165,9.0,13.0,39,0.00,,,0.00,meteohub,2013-01-11 00:02:00,
2013-01-10 17:07:00,27.3,6.3,29.83,SSE,158,9.0,13.0,40,0.00,,,0.00,meteohub,2013-01-11 00:07:00,
2013-01-10 17:12:00,27.3,5.5,29.82,South,169,9.0,14.0,39,0.00,,,0.00,meteohub,2013-01-11 00:12:00,
2013-01-10 17:17:00,27.3,6.3,29.83,SSW,203,5.0,14.0,40,0.00,,,0.00,meteohub,2013-01-11 00:17:00,
2013-01-10 17:22:00,27.1,5.5,29.83,SW,228,4.0,14.0,39,0.00,,,0.00,meteohub,2013-01-11 00:22:00,
2013-01-10 17:27:00,27.3,5.5,29.83,SE,146,7.0,11.0,39,0.00,,,0.00,meteohub,2013-01-11 00:27:00,
2013-01-10 17:32:00,27.3,5.5,29.83,SSE,152,5.0,9.0,39,0.00,,,0.00,meteohub,2013-01-11 00:32:00,
2013-01-10 17:37:00,27.3,5.5,29.83,SSW,198,2.0,9.0,39,0.00,,,0.00,meteohub,2013-01-11 00:37:00,
2013-01-10 17:42:00,27.1,6.1,29.83,South,190,2.0,8.0,40,0.00,,,0.00,meteohub,2013-01-11 00:42:00,
2013-01-10 17:47:00,27.0,5.9,29.83,SSE,153,6.0,9.0,40,0.00,,,0.00,meteohub,2013-01-11 00:47:00,
2013-01-10 17:52:00,27.0,6.4,29.83,SSW,212,3.0,9.0,41,0.00,,,0.00,meteohub,2013-01-11 00:52:00,
2013-01-10 17:57:00,27.0,6.4,29.83,South,187,11.0,11.0,41,0.00,,,0.00,meteohub,2013-01-11 00:57:00,
2013-01-10 18:02:00,27.1,6.6,29.83,SSW,204,5.0,12.0,41,0.00,,,0.00,meteohub,2013-01-11 01:02:00,
2013-01-10 18:07:00,26.8,6.8,29.83,ENE,64,8.0,12.0,42,0.00,,,0.00,meteohub,2013-01-11 01:07:00,
2013-01-10 18:12:00,26.8,6.3,29.82,SSE,155,4.0,12.0,41,0.00,,,0.00,meteohub,2013-01-11 01:12:00,
2013-01-10 18:17:00,26.8,6.3,29.82,SE,138,2.0,10.0,41,0.00,,,0.00,meteohub,2013-01-11 01:17:00,
2013-01-10 18:22:00,27.0,5.9,29.82,SSW,200,4.0,9.0,40,0.00,,,0.00,meteohub,2013-01-11 01:22:00,
2013-01-10 18:27:00,27.1,6.1,29.82,SW,225,2.0,9.0,40,0.00,,,0.00,meteohub,2013-01-11 01:27:00,
2013-01-10 18:32:00,27.3,6.3,29.82,SSW,205,1.0,7.0,40,0.00,,,0.00,meteohub,2013-01-11 01:32:00,
2013-01-10 18:37:00,27.3,6.8,29.82,SSW,203,2.0,10.0,41,0.00,,,0.00,meteohub,2013-01-11 01:37:00,
2013-01-10 18:42:00,27.5,6.8,29.82,SSE,156,3.0,10.0,41,0.00,,,0.00,meteohub,2013-01-11 01:42:00,
2013-01-10 18:47:00,27.5,6.8,29.82,SW,231,5.0,10.0,41,0.00,,,0.00,meteohub,2013-01-11 01:47:00,
2013-01-10 18:52:00,27.5,6.8,29.81,SSE,152,3.0,10.0,41,0.00,,,0.00,meteohub,2013-01-11 01:52:00,
2013-01-10 18:58:00,27.3,7.2,29.81,SE,142,8.0,8.0,42,0.00,,,0.00,meteohub,2013-01-11 01:58:00,
2013-01-10 19:04:00,27.3,7.7,29.82,SSW,200,1.0,10.0,43,0.00,,,0.00,meteohub,2013-01-11 02:04:00,
2013-01-10 19:09:00,27.5,8.4,29.81,South,171,4.0,10.0,44,0.00,,,0.00,meteohub,2013-01-11 02:09:00,
2013-01-10 19:15:00,27.7,9.1,29.82,SSW,195,4.0,10.0,45,0.00,,,0.00,meteohub,2013-01-11 02:15:00,
2013-01-10 19:20:00,27.9,9.3,29.82,South,174,2.0,11.0,45,0.00,,,0.00,meteohub,2013-01-11 02:20:00,
2013-01-10 19:26:00,27.9,9.3,29.82,SE,142,6.0,11.0,45,0.00,,,0.00,meteohub,2013-01-11 02:26:00,
2013-01-10 19:31:00,27.9,9.7,29.82,SE,140,2.0,11.0,46,0.00,,,0.00,meteohub,2013-01-11 02:31:00,
2013-01-10 19:37:00,27.9,9.7,29.82,SW,224,1.0,8.0,46,0.00,,,0.00,meteohub,2013-01-11 02:37:00,
2013-01-10 19:42:00,27.9,10.2,29.82,South,190,2.0,8.0,47,0.00,,,0.00,meteohub,2013-01-11 02:42:00,
2013-01-10 19:48:00,27.9,10.2,29.83,South,186,3.0,7.0,47,0.00,,,0.00,meteohub,2013-01-11 02:48:00,
2013-01-10 19:53:00,28.0,10.4,29.82,SE,125,7.0,9.0,47,0.00,,,0.00,meteohub,2013-01-11 02:53:00,
2013-01-10 19:59:00,28.2,10.6,29.83,SSE,149,3.0,9.0,47,0.00,,,0.00,meteohub,2013-01-11 02:59:00,
2013-01-10 20:05:00,28.0,10.4,29.82,SSE,158,5.0,9.0,47,0.00,,,0.00,meteohub,2013-01-11 03:05:00,
2013-01-10 20:10:00,28.2,10.6,29.82,SE,141,10.0,13.0,47,0.00,,,0.00,meteohub,2013-01-11 03:10:00,
2013-01-10 20:16:00,28.2,11.1,29.82,South,169,8.0,13.0,48,0.00,,,0.00,meteohub,2013-01-11 03:16:00,
2013-01-10 20:21:00,28.6,11.3,29.83,SE,141,7.0,13.0,48,0.00,,,0.00,meteohub,2013-01-11 03:21:00,
2013-01-10 20:27:00,28.4,11.3,29.82,SSE,162,5.0,12.0,48,0.00,,,0.00,meteohub,2013-01-11 03:27:00,
2013-01-10 20:32:00,28.0,11.3,29.82,SSE,154,6.0,11.0,49,0.00,,,0.00,meteohub,2013-01-11 03:32:00,
2013-01-10 20:37:00,28.0,11.3,29.82,South,177,5.0,11.0,49,0.00,,,0.00,meteohub,2013-01-11 03:37:00,
2013-01-10 20:45:00,28.2,11.5,29.82,South,171,12.0,12.0,49,0.00,,,0.00,meteohub,2013-01-11 03:45:00,
2013-01-10 20:50:00,28.6,11.3,29.81,SSE,167,7.0,17.0,48,0.00,,,0.00,meteohub,2013-01-11 03:50:00,
2013-01-10 20:55:00,28.6,10.9,29.81,SSE,158,8.0,17.0,47,0.00,,,0.00,meteohub,2013-01-11 03:55:00,
2013-01-10 21:01:00,27.9,11.1,29.81,SSE,160,3.0,14.0,49,0.00,,,0.00,meteohub,2013-01-11 04:01:00,
2013-01-10 21:07:00,27.1,10.9,29.80,SSW,194,3.0,12.0,50,0.00,,,0.00,meteohub,2013-01-11 04:07:00,
2013-01-10 21:12:00,26.8,11.1,29.80,SSE,154,7.0,10.0,51,0.00,,,0.00,meteohub,2013-01-11 04:12:00,
2013-01-10 21:17:00,26.2,10.6,29.79,South,172,4.0,9.0,51,0.00,,,0.00,meteohub,2013-01-11 04:17:00,
2013-01-10 21:22:00,25.9,10.8,29.79,SE,124,3.0,9.0,52,0.00,,,0.00,meteohub,2013-01-11 04:22:00,
2013-01-10 21:27:00,25.3,10.6,29.79,SE,138,9.0,10.0,53,0.00,,,0.00,meteohub,2013-01-11 04:27:00,
2013-01-10 21:32:00,25.2,10.9,29.79,ESE,112,5.0,11.0,54,0.00,,,0.00,meteohub,2013-01-11 04:32:00,
2013-01-10 21:37:00,25.0,10.8,29.79,SSE,149,9.0,13.0,54,0.00,,,0.00,meteohub,2013-01-11 04:37:00,
2013-01-10 21:42:00,24.8,10.9,29.79,SSW,201,7.0,16.0,55,0.00,,,0.00,meteohub,2013-01-11 04:42:00,
2013-01-10 21:47:00,24.6,10.8,29.79,SSE,147,10.0,16.0,55,0.00,,,0.00,meteohub,2013-01-11 04:47:00,
2013-01-10 21:52:00,24.6,10.8,29.78,South,176,8.0,16.0,55,0.00,,,0.00,meteohub,2013-01-11 04:52:00,
2013-01-10 21:57:00,24.4,10.6,29.77,East,94,10.0,15.0,55,0.00,,,0.00,meteohub,2013-01-11 04:57:00,
2013-01-10 22:00:00,24.3,10.8,29.77,South,183,6.0,15.0,56,0.00,,,0.00,meteohub,2013-01-11 05:00:00,
2013-01-10 22:03:00,24.3,10.8,29.77,SSE,166,7.0,15.0,56,0.00,,,0.00,meteohub,2013-01-11 05:03:00,
2013-01-10 22:07:00,23.9,10.4,29.77,SSE,158,10.0,17.0,56,0.00,,,0.00,meteohub,2013-01-11 05:07:00,
2013-01-10 22:12:00,23.5,10.6,29.77,SSW,200,6.0,17.0,57,0.00,,,0.00,meteohub,2013-01-11 05:12:00,
2013-01-10 22:18:00,23.9,11.3,29.76,South,179,9.0,14.0,58,0.00,,,0.00,meteohub,2013-01-11 05:18:00,
2013-01-10 22:23:00,25.0,11.5,29.76,SSE,167,13.0,15.0,56,0.00,,,0.00,meteohub,2013-01-11 05:23:00,
2013-01-10 22:29:00,25.9,12.0,29.76,SSW,194,10.0,19.0,55,0.00,,,0.00,meteohub,2013-01-11 05:29:00,
2013-01-10 22:34:00,26.2,12.2,29.75,SSE,156,10.0,19.0,55,0.00,,,0.00,meteohub,2013-01-11 05:34:00,
2013-01-10 22:40:00,26.2,12.2,29.75,South,181,6.0,22.0,55,0.00,,,0.00,meteohub,2013-01-11 05:40:00,
2013-01-10 22:45:00,25.9,12.7,29.75,West,266,12.0,22.0,57,0.00,,,0.00,meteohub,2013-01-11 05:45:00,
2013-01-10 22:51:00,25.7,12.9,29.75,WSW,249,7.0,24.0,58,0.00,,,0.00,meteohub,2013-01-11 05:51:00,
2013-01-10 22:56:00,25.5,13.6,29.75,East,95,15.0,25.0,60,0.00,,,0.00,meteohub,2013-01-11 05:56:00,
2013-01-10 23:02:00,25.7,13.8,29.74,NNW,342,13.0,28.0,60,0.00,,,0.00,meteohub,2013-01-11 06:02:00,
2013-01-10 23:07:00,25.7,14.2,29.74,SE,146,12.0,28.0,61,0.00,,,0.00,meteohub,2013-01-11 06:07:00,
2013-01-10 23:13:00,25.5,14.0,29.74,East,87,17.0,25.0,61,0.00,,,0.00,meteohub,2013-01-11 06:13:00,
2013-01-10 23:18:00,25.2,14.0,29.74,SSE,162,20.0,25.0,62,0.00,,,0.00,meteohub,2013-01-11 06:18:00,
2013-01-10 23:24:00,25.2,14.4,29.74,SSW,206,17.0,21.0,63,0.00,,,0.00,meteohub,2013-01-11 06:24:00,
2013-01-10 23:29:00,25.2,14.4,29.74,SSW,195,10.0,23.0,63,0.00,,,0.00,meteohub,2013-01-11 06:29:00,
2013-01-10 23:35:00,24.6,14.2,29.74,SSE,160,7.0,23.0,64,0.00,,,0.00,meteohub,2013-01-11 06:35:00,
2013-01-10 23:40:00,24.3,14.2,29.74,SSW,198,10.0,22.0,65,0.00,,,0.00,meteohub,2013-01-11 06:40:00,
2013-01-10 23:46:00,24.1,14.4,29.74,SSE,165,13.0,18.0,66,0.00,,,0.00,meteohub,2013-01-11 06:46:00,
2013-01-10 23:51:00,23.9,14.2,29.73,SSW,193,7.0,18.0,66,0.00,,,0.00,meteohub,2013-01-11 06:51:00,
2013-01-10 23:57:00,23.7,14.0,29.73,SSE,155,8.0,17.0,66,0.00,,,0.00,meteohub,2013-01-11 06:57:00,